createdAt,value
2018-06-19T00:01:20.133Z,6.27
2018-06-19T00:06:27.426Z,6.80
2018-06-19T00:08:56.009Z,5.67
2018-06-19T00:11:24.244Z,6.17
2018-06-19T00:13:52.472Z,6.70
2018-06-19T00:16:21.667Z,6.80
2018-06-19T00:18:53.865Z,6.30
2018-06-19T00:21:35.178Z,7.43
2018-06-19T00:24:04.697Z,7.03
2018-06-19T00:26:33.479Z,6.47
2018-06-19T00:29:02.192Z,7.03
2018-06-19T00:31:31.052Z,7.70
2018-06-19T00:33:59.340Z,6.53
2018-06-19T00:36:28.183Z,7.77
2018-06-19T00:38:58.546Z,6.77
2018-06-19T00:41:27.098Z,7.00
2018-06-19T00:44:01.020Z,6.70
2018-06-19T00:46:30.321Z,7.37
2018-06-19T00:49:12.428Z,6.63
2018-06-19T00:51:40.959Z,6.70
2018-06-19T00:54:09.705Z,6.30
2018-06-19T00:56:43.561Z,6.60
2018-06-19T00:59:12.851Z,5.53
2018-06-19T01:01:41.364Z,6.80
2018-06-19T01:04:10.700Z,5.83
2018-06-19T01:06:39.222Z,6.00
2018-06-19T01:09:13.161Z,6.07
2018-06-19T01:11:41.767Z,6.63
2018-06-19T01:14:23.597Z,6.10
2018-06-19T01:16:51.775Z,6.10
2018-06-19T01:19:20.511Z,5.67
2018-06-19T01:21:49.376Z,6.60
2018-06-19T01:24:17.829Z,5.93
2018-06-19T01:26:46.036Z,5.53
2018-06-19T01:29:20.113Z,6.00
2018-06-19T01:31:48.660Z,5.40
2018-06-19T01:34:29.773Z,5.63
2018-06-19T01:36:57.964Z,5.57
2018-06-19T01:39:26.563Z,5.70
2018-06-19T01:41:55.479Z,5.20
2018-06-19T01:44:25.250Z,5.23
2018-06-19T01:46:54.492Z,6.03
2018-06-19T01:49:35.233Z,5.83
2018-06-19T01:58:43.010Z,5.20
2018-06-19T02:01:13.854Z,5.47
2018-06-19T02:03:43.357Z,4.90
2018-06-19T02:06:13.123Z,4.50
2018-06-19T02:08:42.256Z,4.60
2018-06-19T02:11:11.259Z,4.67
2018-06-19T02:13:40.748Z,4.00
2018-06-19T02:16:09.958Z,3.60
2018-06-19T02:18:40.259Z,4.47
2018-06-19T02:21:09.231Z,4.60
2018-06-19T02:23:41.594Z,4.80
2018-06-19T02:26:10.961Z,3.57
2018-06-19T02:28:52.195Z,4.00
2018-06-19T02:31:21.535Z,4.07
2018-06-19T02:33:50.395Z,3.80
2018-06-19T02:36:18.897Z,3.90
2018-06-19T02:38:47.753Z,4.13
2018-06-19T02:41:16.622Z,4.10
2018-06-19T02:43:49.962Z,3.67
2018-06-19T02:46:19.252Z,3.50
2018-06-19T02:48:51.905Z,3.47
2018-06-19T02:51:20.840Z,3.70
2018-06-19T02:53:54.332Z,3.10
2018-06-19T02:56:23.142Z,3.03
2018-06-19T02:58:56.285Z,3.50
2018-06-19T03:01:25.200Z,4.00
2018-06-19T03:03:58.357Z,3.27
2018-06-19T03:06:27.722Z,3.50
2018-06-19T03:09:00.645Z,4.03
2018-06-19T03:11:29.467Z,3.70
2018-06-19T03:14:01.784Z,3.47
2018-06-19T03:16:31.235Z,3.63
2018-06-19T03:19:04.310Z,3.43
2018-06-19T03:21:33.183Z,3.77
2018-06-19T03:24:06.468Z,3.30
2018-06-19T03:26:35.810Z,3.97
2018-06-19T03:29:10.257Z,3.53
2018-06-19T03:31:39.094Z,3.30
2018-06-19T03:34:13.250Z,3.50
2018-06-19T03:36:42.376Z,4.10
2018-06-19T03:39:14.724Z,3.47
2018-06-19T03:41:43.972Z,3.67
2018-06-19T03:44:17.497Z,3.63
2018-06-19T03:46:46.392Z,3.90
2018-06-19T03:49:19.335Z,3.70
2018-06-19T03:51:47.793Z,3.67
2018-06-19T03:54:20.779Z,4.10
2018-06-19T03:56:50.611Z,4.33
2018-06-19T03:59:22.778Z,4.17
2018-06-19T04:01:51.615Z,4.73
2018-06-19T04:04:32.746Z,4.17
2018-06-19T04:07:01.568Z,4.53
2018-06-19T04:09:30.369Z,4.53
2018-06-19T04:12:00.626Z,4.30
2018-06-19T04:14:29.158Z,4.53
2018-06-19T04:16:57.615Z,4.20
2018-06-19T04:19:31.907Z,4.53
2018-06-19T04:22:00.760Z,4.50
2018-06-19T04:24:33.504Z,4.70
2018-06-19T04:27:03.668Z,4.80
2018-06-19T04:29:35.530Z,4.87
2018-06-19T04:32:04.416Z,4.90
2018-06-19T04:34:37.723Z,4.87
2018-06-19T04:37:06.233Z,5.00
2018-06-19T04:39:39.204Z,5.60
2018-06-19T04:42:08.285Z,4.93
2018-06-19T04:44:40.602Z,4.73
2018-06-19T04:47:09.002Z,4.80
2018-06-19T04:49:41.584Z,5.07
2018-06-19T04:52:11.621Z,4.40
2018-06-19T04:54:45.083Z,4.93
2018-06-19T04:57:14.210Z,4.83
2018-06-19T04:59:47.258Z,5.23
2018-06-19T05:02:16.313Z,5.43
2018-06-19T05:04:59.090Z,5.20
2018-06-19T05:07:30.251Z,5.47
2018-06-19T05:10:00.435Z,5.77
2018-06-19T05:12:29.245Z,5.80
2018-06-19T05:14:57.695Z,5.43
2018-06-19T05:17:27.304Z,5.90
2018-06-19T05:19:59.143Z,5.30
2018-06-19T05:22:27.678Z,5.20
2018-06-19T05:25:01.838Z,5.57
2018-06-19T05:27:30.262Z,5.37
2018-06-19T05:30:11.752Z,5.93
2018-06-19T05:32:40.478Z,5.53
2018-06-19T05:35:09.477Z,5.30
2018-06-19T05:37:38.306Z,4.67
2018-06-19T05:40:07.239Z,5.83
2018-06-19T05:42:35.762Z,4.67
2018-06-19T05:45:09.771Z,5.43
2018-06-19T05:47:39.122Z,5.87
2018-06-19T05:50:21.301Z,5.57
2018-06-19T05:52:50.563Z,5.30
2018-06-19T05:55:19.719Z,5.27
2018-06-19T05:57:48.970Z,5.10
2018-06-19T06:00:17.556Z,5.47
2018-06-19T06:02:46.194Z,5.23
2018-06-19T06:05:27.750Z,5.63
2018-06-19T06:07:56.165Z,5.07
2018-06-19T06:10:25.756Z,5.50
2018-06-19T06:12:54.638Z,5.23
2018-06-19T06:15:23.293Z,5.53
2018-06-19T06:17:51.726Z,5.53
2018-06-19T06:20:26.826Z,12.13
2018-06-19T06:22:55.716Z,5.70
2018-06-19T06:25:25.315Z,5.10
2018-06-19T06:27:54.414Z,5.10
2018-06-19T06:30:27.184Z,5.10
2018-06-19T06:32:55.618Z,5.13
2018-06-19T06:35:29.625Z,6.17
2018-06-19T06:37:59.290Z,5.27
2018-06-19T06:40:32.072Z,5.40
2018-06-19T06:43:01.240Z,5.00
2018-06-19T06:45:34.030Z,5.10
2018-06-19T06:48:04.596Z,4.97
2018-06-19T06:50:36.179Z,4.60
2018-06-19T06:53:05.224Z,5.03
2018-06-19T06:55:47.289Z,4.57
2018-06-19T06:58:15.788Z,4.87
2018-06-19T07:00:45.713Z,4.90
2018-06-19T07:03:14.664Z,5.00
2018-06-19T07:05:44.362Z,4.87
2018-06-19T07:08:13.215Z,5.13
2018-06-19T07:10:45.064Z,4.57
2018-06-19T07:13:14.120Z,5.30
2018-06-19T07:15:46.357Z,4.30
2018-06-19T07:18:15.058Z,4.43
2018-06-19T07:20:48.173Z,4.50
2018-06-19T07:23:16.690Z,4.47
2018-06-19T07:25:49.745Z,4.57
2018-06-19T07:28:18.463Z,4.80
2018-06-19T07:30:52.252Z,5.03
2018-06-19T07:33:20.782Z,5.43
2018-06-19T07:35:55.178Z,5.33
2018-06-19T07:38:25.384Z,5.50
2018-06-19T07:40:58.108Z,4.70
2018-06-19T07:43:27.493Z,5.20
2018-06-19T07:46:00.679Z,5.03
2018-06-19T07:48:29.387Z,5.20
2018-06-19T07:51:03.054Z,5.17
2018-06-19T07:53:31.459Z,5.33
2018-06-19T07:56:15.067Z,6.23
2018-06-19T07:58:44.651Z,5.80
2018-06-19T08:01:13.587Z,5.43
2018-06-19T08:03:42.442Z,5.97
2018-06-19T08:06:11.332Z,5.53
2018-06-19T08:08:40.504Z,5.37
2018-06-19T08:11:22.200Z,5.30
2018-06-19T08:13:52.180Z,5.93
2018-06-19T08:16:21.223Z,5.77
2018-06-19T08:18:50.348Z,5.43
2018-06-19T08:21:19.330Z,5.47
2018-06-19T08:23:48.715Z,5.20
2018-06-19T08:26:17.624Z,5.40
2018-06-19T08:28:47.303Z,5.07
2018-06-19T08:31:19.744Z,5.40
2018-06-19T08:33:50.035Z,5.10
2018-06-19T08:36:23.739Z,5.17
2018-06-19T08:38:52.835Z,5.73
2018-06-19T08:41:26.204Z,6.10
2018-06-19T08:43:56.691Z,5.53
2018-06-19T08:46:26.778Z,5.47
2018-06-19T08:48:56.466Z,5.83
2018-06-19T08:51:28.659Z,6.20
2018-06-19T08:53:58.773Z,5.33
2018-06-19T08:56:32.236Z,6.40
2018-06-19T08:59:01.679Z,5.20
2018-06-19T09:01:34.744Z,5.57
2018-06-19T09:04:04.075Z,6.80
2018-06-19T09:06:37.070Z,6.60
2018-06-19T09:09:09.087Z,7.23
2018-06-19T09:11:38.871Z,6.77
2018-06-19T09:14:08.253Z,6.40
2018-06-19T09:16:40.175Z,7.03
2018-06-19T09:19:10.194Z,7.20
2018-06-19T09:21:41.722Z,7.00
2018-06-19T09:24:10.719Z,8.03
2018-06-19T09:26:44.570Z,7.67
2018-06-19T09:29:13.702Z,7.10
2018-06-19T09:31:47.415Z,8.33
2018-06-19T09:34:16.602Z,7.57
2018-06-19T09:36:48.726Z,7.43
2018-06-19T09:39:17.194Z,8.30
2018-06-19T09:41:50.102Z,7.50
2018-06-19T09:44:19.253Z,7.93
2018-06-19T09:47:00.536Z,8.57
2018-06-19T09:49:30.165Z,7.53
2018-06-19T09:51:59.263Z,8.07
2018-06-19T09:54:27.770Z,7.27
2018-06-19T09:56:57.544Z,7.40
2018-06-19T09:59:26.732Z,7.37
2018-06-19T10:01:59.965Z,6.73
2018-06-19T10:04:29.313Z,7.20
2018-06-19T10:07:03.235Z,7.53
2018-06-19T10:09:32.387Z,7.23
2018-06-19T10:12:03.281Z,6.67
2018-06-19T10:14:33.972Z,6.53
2018-06-19T10:17:06.523Z,7.37
2018-06-19T10:19:35.548Z,6.60
2018-06-19T10:22:09.699Z,7.43
2018-06-19T10:24:38.557Z,7.07
2018-06-19T10:27:11.243Z,6.33
2018-06-19T10:29:41.249Z,6.27
2018-06-19T10:32:13.867Z,6.30
2018-06-19T10:34:43.365Z,6.07
2018-06-19T10:37:16.794Z,6.30
2018-06-19T10:39:45.518Z,5.83
2018-06-19T10:42:17.724Z,5.73
2018-06-19T10:44:46.640Z,5.57
2018-06-19T10:47:19.732Z,4.80
2018-06-19T10:49:50.446Z,5.90
2018-06-19T10:52:21.804Z,5.23
2018-06-19T10:54:50.983Z,5.30
2018-06-19T10:57:24.972Z,5.00
2018-06-19T10:59:55.371Z,5.77
2018-06-19T11:02:26.319Z,4.93
2018-06-19T11:04:56.688Z,5.00
2018-06-19T11:07:32.245Z,4.80
2018-06-19T11:10:01.781Z,4.70
2018-06-19T11:12:31.201Z,4.33
2018-06-19T11:15:00.266Z,5.33
2018-06-19T11:17:30.261Z,4.10
2018-06-19T11:20:01.198Z,4.83
2018-06-19T11:22:33.874Z,5.30
2018-06-19T11:25:03.571Z,4.40
2018-06-19T11:27:35.201Z,4.50
2018-06-19T11:30:04.460Z,4.30
2018-06-19T11:32:47.728Z,3.77
2018-06-19T11:35:17.274Z,4.23
2018-06-19T11:37:48.183Z,4.17
2018-06-19T11:40:17.615Z,4.27
2018-06-19T11:42:46.756Z,5.10
2018-06-19T11:45:15.650Z,4.53
2018-06-19T11:47:44.691Z,3.43
2018-06-19T11:50:14.275Z,3.57
2018-06-19T11:52:46.991Z,4.20
2018-06-19T11:55:15.898Z,4.93
2018-06-19T11:57:48.808Z,4.57
2018-06-19T12:00:17.370Z,4.67
2018-06-19T12:05:20.218Z,5.33
2018-06-19T12:07:53.683Z,5.30
2018-06-19T12:10:25.266Z,5.40
2018-06-19T12:12:54.797Z,5.00
2018-06-19T12:15:23.337Z,5.43
2018-06-19T12:17:56.528Z,5.47
2018-06-19T12:20:27.324Z,8.53
2018-06-19T12:23:00.776Z,7.60
2018-06-19T12:25:30.087Z,5.87
2018-06-19T12:28:00.589Z,6.10
2018-06-19T12:30:29.695Z,6.63
2018-06-19T12:33:03.197Z,5.90
2018-06-19T12:35:33.408Z,6.20
2018-06-19T12:38:05.887Z,5.90
2018-06-19T12:40:35.187Z,5.07
2018-06-19T12:43:17.706Z,5.73
2018-06-19T12:45:47.226Z,5.33
2018-06-19T12:48:16.179Z,4.97
2018-06-19T12:51:50.195Z,4.80
2018-06-19T12:56:28.285Z,4.83
2018-06-19T12:58:58.435Z,4.30
2018-06-19T13:01:27.960Z,4.63
2018-06-19T13:04:02.955Z,4.73
2018-06-19T13:06:35.909Z,3.53
2018-06-19T13:09:07.732Z,3.53
2018-06-19T13:11:36.282Z,3.80
2018-06-19T13:14:19.681Z,3.53
2018-06-19T13:16:59.987Z,3.47
2018-06-19T13:19:40.259Z,3.90
2018-06-19T13:22:10.646Z,3.80
2018-06-19T13:24:41.163Z,4.00
2018-06-19T13:27:09.596Z,3.60
2018-06-19T13:29:56.950Z,3.67
2018-06-19T13:32:27.602Z,3.43
2018-06-19T13:34:56.534Z,3.90
2018-06-19T13:37:29.987Z,3.37
2018-06-19T13:41:04.318Z,3.40
2018-06-19T13:43:38.611Z,4.00
2018-06-19T13:46:12.518Z,3.50
2018-06-19T13:48:41.804Z,3.60
2018-06-19T13:51:12.775Z,3.50
2018-06-19T13:53:42.060Z,3.67
2018-06-19T13:57:23.521Z,3.37
2018-06-19T13:59:56.784Z,3.80
2018-06-19T14:02:27.403Z,3.77
2018-06-19T14:04:57.497Z,3.70
2018-06-19T14:07:27.967Z,4.10
2018-06-19T14:10:02.638Z,3.50
2018-06-19T14:13:13.005Z,3.90
2018-06-19T14:15:52.516Z,3.40
2018-06-19T14:18:22.570Z,3.50
2018-06-19T14:20:52.656Z,3.30
2018-06-19T14:23:22.454Z,3.27
2018-06-19T14:25:51.957Z,3.20
2018-06-19T14:28:21.712Z,3.40
2018-06-19T14:30:57.227Z,3.23
2018-06-19T14:33:29.085Z,2.97
2018-06-19T14:35:59.248Z,3.17
2018-06-19T14:38:28.532Z,3.63
2018-06-19T14:40:59.132Z,3.20
2018-06-19T14:43:28.531Z,3.10
2018-06-19T14:46:02.712Z,3.07
2018-06-19T14:48:33.468Z,3.10
2018-06-19T14:51:03.698Z,2.90
2018-06-19T14:53:34.220Z,3.23
2018-06-19T14:56:08.713Z,3.20
2018-06-19T14:58:40.246Z,3.30
2018-06-19T15:01:09.244Z,3.30
2018-06-19T15:03:38.488Z,3.17
2018-06-19T15:06:20.523Z,3.27
2018-06-19T15:08:56.382Z,2.87
2018-06-19T15:11:26.614Z,3.10
2018-06-19T15:13:58.308Z,3.57
2018-06-19T15:16:29.088Z,3.57
2018-06-19T15:18:57.555Z,3.43
2018-06-19T15:21:26.029Z,3.00
2018-06-19T15:23:54.966Z,3.13
2018-06-19T15:26:23.440Z,3.20
2018-06-19T15:28:53.595Z,3.37
2018-06-19T15:31:23.271Z,4.00
2018-06-19T15:33:53.210Z,3.13
2018-06-19T15:36:21.663Z,3.97
2018-06-19T15:38:55.115Z,3.70
2018-06-19T15:41:23.574Z,4.10
2018-06-19T15:43:52.328Z,3.50
2018-06-19T15:46:25.069Z,3.73
2018-06-19T15:48:53.623Z,3.77
2018-06-19T15:51:27.181Z,3.87
2018-06-19T15:53:56.103Z,4.17
2018-06-19T15:56:30.108Z,3.30
2018-06-19T15:58:59.019Z,3.43
2018-06-19T16:01:34.526Z,3.33
2018-06-19T16:04:03.199Z,3.10
2018-06-19T16:06:36.477Z,3.63
2018-06-19T16:09:06.372Z,3.17
2018-06-19T16:11:37.491Z,3.50
2018-06-19T16:14:06.644Z,3.27
2018-06-19T16:16:38.812Z,3.20
2018-06-19T16:19:08.093Z,4.60
2018-06-19T16:21:40.298Z,3.63
2018-06-19T16:24:09.152Z,3.70
2018-06-19T16:26:43.737Z,3.60
2018-06-19T16:29:14.186Z,4.07
2018-06-19T16:31:46.680Z,3.20
2018-06-19T16:34:15.295Z,3.20
2018-06-19T16:36:48.850Z,3.50
2018-06-19T16:39:18.945Z,3.73
2018-06-19T16:41:49.369Z,3.47
2018-06-19T16:44:19.928Z,3.50
2018-06-19T16:49:28.565Z,3.20
2018-06-19T16:52:06.649Z,3.63
2018-06-19T16:54:36.434Z,3.43
2018-06-19T16:57:05.400Z,3.77
2018-06-19T16:59:34.383Z,3.30
2018-06-19T17:02:03.919Z,3.77
2018-06-19T17:04:33.175Z,3.80
2018-06-19T17:07:02.698Z,3.30
2018-06-19T17:09:31.523Z,3.77
2018-06-19T17:12:03.672Z,3.60
2018-06-19T17:14:34.502Z,3.97
2018-06-19T17:17:04.175Z,3.63
2018-06-19T17:19:33.311Z,3.83
2018-06-19T17:22:07.740Z,3.33
2018-06-19T17:24:36.988Z,3.77
2018-06-19T17:27:25.403Z,3.17
2018-06-19T17:29:57.191Z,3.17
2018-06-19T17:32:26.387Z,3.17
2018-06-19T17:34:57.002Z,3.50
2018-06-19T17:37:26.648Z,2.80
2018-06-19T17:39:56.943Z,2.93
2018-06-19T17:42:26.245Z,3.10
2018-06-19T17:44:56.092Z,3.20
2018-06-19T17:47:26.737Z,2.87
2018-06-19T17:49:55.513Z,2.70
2018-06-19T17:52:24.015Z,2.97
2018-06-19T17:54:53.019Z,3.20
2018-06-19T17:57:22.448Z,2.90
2018-06-19T17:59:51.796Z,2.80
2018-06-19T18:02:23.560Z,3.13
2018-06-19T18:04:53.176Z,3.20
2018-06-19T18:07:27.499Z,2.80
2018-06-19T18:09:59.396Z,3.03
2018-06-19T18:12:29.293Z,2.80
2018-06-19T18:14:58.161Z,3.20
2018-06-19T18:17:31.444Z,2.53
2018-06-19T18:20:00.494Z,3.60
2018-06-19T18:22:31.218Z,3.17
2018-06-19T18:25:00.975Z,3.60
2018-06-19T18:27:34.217Z,3.17
2018-06-19T18:30:02.819Z,3.10
2018-06-19T18:32:46.108Z,3.80
2018-06-19T18:35:15.189Z,3.10
2018-06-19T18:38:00.225Z,3.33
2018-06-19T18:40:30.372Z,3.17
2018-06-19T18:43:00.735Z,3.30
2018-06-19T18:45:29.199Z,4.07
2018-06-19T18:47:59.422Z,3.80
2018-06-19T18:50:29.164Z,3.70
2018-06-19T18:52:58.112Z,3.87
2018-06-19T18:55:33.108Z,3.53
2018-06-19T18:58:07.575Z,3.30
2018-06-19T19:00:39.672Z,3.37
2018-06-19T19:03:11.439Z,3.20
2018-06-19T19:08:24.499Z,3.50
2018-06-19T19:10:58.811Z,3.53
2018-06-19T19:13:32.783Z,3.83
2018-06-19T19:16:16.631Z,3.40
2018-06-19T19:18:53.267Z,3.80
2018-06-19T19:21:22.204Z,4.00
2018-06-19T19:23:55.692Z,3.57
2018-06-19T19:26:31.097Z,3.33
2018-06-19T19:29:05.597Z,3.50
2018-06-19T19:31:34.721Z,3.43
2018-06-19T19:34:03.734Z,3.50
2018-06-19T19:36:39.725Z,3.37
2018-06-19T19:39:13.730Z,3.57
2018-06-19T19:41:46.610Z,3.70
2018-06-19T19:44:15.724Z,3.63
2018-06-19T19:46:51.099Z,3.47
2018-06-19T19:49:21.487Z,3.57
2018-06-19T19:51:50.592Z,3.40
2018-06-19T19:54:19.975Z,3.60
2018-06-19T19:56:55.383Z,3.90
2018-06-19T19:59:24.263Z,3.70
2018-06-19T20:01:54.646Z,3.63
2018-06-19T20:04:30.392Z,3.70
2018-06-19T20:06:59.611Z,3.60
2018-06-19T20:09:39.990Z,3.63
2018-06-19T20:12:16.901Z,3.70
2018-06-19T20:14:48.374Z,3.90
2018-06-19T20:17:20.730Z,3.97
2018-06-19T20:19:51.377Z,3.50
2018-06-19T20:22:24.383Z,4.43
2018-06-19T20:24:54.214Z,3.93
2018-06-19T20:27:25.176Z,4.27
2018-06-19T20:29:54.776Z,3.77
2018-06-19T20:32:26.710Z,3.67
2018-06-19T20:34:56.823Z,4.20
2018-06-19T20:37:28.201Z,3.83
2018-06-19T20:39:58.741Z,4.07
2018-06-19T20:42:30.223Z,3.87
2018-06-19T20:45:00.777Z,3.97
2018-06-19T20:47:33.347Z,3.63
2018-06-19T20:50:03.430Z,4.33
2018-06-19T20:52:33.611Z,4.90
2018-06-19T20:55:09.621Z,3.93
2018-06-19T20:57:41.083Z,3.93
2018-06-19T21:00:11.186Z,4.67
2018-06-19T21:02:40.506Z,3.53
2018-06-19T21:05:10.724Z,3.90
2018-06-19T21:07:43.354Z,4.00
2018-06-19T21:10:14.925Z,4.17
2018-06-19T21:12:45.402Z,4.43
2018-06-19T21:15:15.494Z,4.20
2018-06-19T21:17:46.411Z,4.37
2018-06-19T21:20:15.031Z,4.43
2018-06-19T21:22:45.104Z,4.10
2018-06-19T21:25:14.567Z,4.13
2018-06-19T21:27:48.685Z,4.10
2018-06-19T21:30:25.431Z,4.40
2018-06-19T21:32:55.717Z,4.90
2018-06-19T21:35:25.177Z,4.30
2018-06-19T21:37:54.648Z,4.90
2018-06-19T21:40:25.224Z,4.10
2018-06-19T21:42:55.176Z,4.77
2018-06-19T21:45:26.113Z,5.17
2018-06-19T21:47:57.416Z,4.70
2018-06-19T21:50:29.163Z,4.67
2018-06-19T21:52:58.526Z,4.17
2018-06-19T21:55:29.389Z,4.10
2018-06-19T21:58:00.265Z,4.23
2018-06-19T22:00:32.639Z,4.90
2018-06-19T22:03:03.419Z,4.97
2018-06-19T22:05:33.211Z,4.50
2018-06-19T22:08:07.087Z,4.90
2018-06-19T22:10:39.139Z,4.63
2018-06-19T22:13:08.682Z,5.07
2018-06-19T22:15:38.165Z,5.07
2018-06-19T22:18:11.808Z,5.10
2018-06-19T22:20:40.535Z,5.13
2018-06-19T22:23:13.760Z,5.63
2018-06-19T22:25:51.994Z,4.90
2018-06-19T22:28:22.654Z,4.97
2018-06-19T22:30:52.012Z,5.47
2018-06-19T22:33:24.196Z,5.60
2018-06-19T22:35:53.392Z,5.23
2018-06-19T22:38:23.192Z,5.20
2018-06-19T22:40:52.526Z,5.40
2018-06-19T22:43:21.536Z,5.30
2018-06-19T22:45:52.250Z,4.97
2018-06-19T22:48:23.195Z,5.60
2018-06-19T22:50:52.726Z,5.80
2018-06-19T22:53:29.659Z,5.40
2018-06-19T22:56:00.987Z,4.87
2018-06-19T22:58:30.395Z,4.87
2018-06-19T23:00:59.636Z,4.33
2018-06-19T23:03:31.238Z,5.57
2018-06-19T23:06:01.624Z,5.00
2018-06-19T23:08:34.799Z,4.63
2018-06-19T23:11:04.420Z,4.47
2018-06-19T23:13:33.681Z,5.20
2018-06-19T23:16:03.183Z,4.80
2018-06-19T23:18:37.602Z,4.73
2018-06-19T23:21:07.228Z,4.63
2018-06-19T23:23:37.516Z,4.57
2018-06-19T23:26:06.912Z,4.10
2018-06-19T23:28:39.545Z,4.77
2018-06-19T23:31:08.717Z,4.10
2018-06-19T23:33:41.573Z,5.07
2018-06-19T23:36:10.028Z,4.87
2018-06-19T23:38:42.626Z,4.93
2018-06-19T23:41:11.839Z,4.50
2018-06-19T23:43:47.138Z,4.20
2018-06-19T23:46:17.164Z,4.40
2018-06-19T23:48:48.351Z,5.50
2018-06-19T23:51:17.239Z,5.17
2018-06-19T23:53:58.195Z,5.40
2018-06-19T23:56:28.131Z,4.97
2018-06-19T23:58:57.024Z,4.40
